Meteorología y climatología de Navarra
Datos de la estación - Meteo Navarra

Estación de Goizueta GN

Altitud 142 m.


Datos desde el 10/10/2019 hasta el 11/10/2019 en horario solar
Los datos son PROVISIONALES

Anterior Página 1 de 1 Siguiente Descargar: Formato para Excel 2000 o superior   Formato csv   Formato para OpenOffice Calc
Fecha Temperatura Humedad relativa Radiación global Insolación Precipitación Vel. viento 10 m Vel. viento 10 m Dir. viento 10 m
ºC % W/m² s l/m² m/s km/h º
10/10/2019 0:00 11.6 99 - - - - 0.0 - - - - - -
10/10/2019 0:10 11.8 99 - - - - 0.0 - - - - - -
10/10/2019 0:20 11.7 99 - - - - 0.0 - - - - - -
10/10/2019 0:30 11.7 99 - - - - 0.0 - - - - - -
10/10/2019 0:40 11.7 99 - - - - 0.0 - - - - - -
10/10/2019 0:50 11.7 99 - - - - 0.0 - - - - - -
10/10/2019 1:00 11.7 99 - - - - 0.0 - - - - - -
10/10/2019 1:10 11.3 99 - - - - 0.0 - - - - - -
10/10/2019 1:20 10.7 99 - - - - 0.0 - - - - - -
10/10/2019 1:30 10.4 99 - - - - 0.0 - - - - - -
10/10/2019 1:40 10.2 99 - - - - 0.0 - - - - - -
10/10/2019 1:50 10.1 99 - - - - 0.0 - - - - - -
10/10/2019 2:00 9.9 99 - - - - 0.0 - - - - - -
10/10/2019 2:10 9.7 99 - - - - 0.0 - - - - - -
10/10/2019 2:20 9.6 99 - - - - 0.0 - - - - - -
10/10/2019 2:30 9.4 99 - - - - 0.0 - - - - - -
10/10/2019 2:40 9.4 99 - - - - 0.0 - - - - - -
10/10/2019 2:50 9.3 99 - - - - 0.0 - - - - - -
10/10/2019 3:00 9.3 99 - - - - 0.0 - - - - - -
10/10/2019 3:10 9.4 99 - - - - 0.0 - - - - - -
10/10/2019 3:20 9.3 99 - - - - 0.0 - - - - - -
10/10/2019 3:30 9.3 99 - - - - 0.0 - - - - - -
10/10/2019 3:40 9.3 99 - - - - 0.0 - - - - - -
10/10/2019 3:50 8.9 99 - - - - 0.0 - - - - - -
10/10/2019 4:00 8.8 99 - - - - 0.0 - - - - - -
10/10/2019 4:10 8.6 99 - - - - 0.0 - - - - - -
10/10/2019 4:20 8.5 99 - - - - 0.0 - - - - - -
10/10/2019 4:30 8.4 99 - - - - 0.0 - - - - - -
10/10/2019 4:40 8.3 99 - - - - 0.0 - - - - - -
10/10/2019 4:50 8.2 99 - - - - 0.0 - - - - - -
10/10/2019 5:00 8.1 99 - - - - 0.0 - - - - - -
10/10/2019 5:10 8.0 99 - - - - 0.0 - - - - - -
10/10/2019 5:20 8.0 100 - - - - 0.0 - - - - - -
10/10/2019 5:30 7.9 100 - - - - 0.0 - - - - - -
10/10/2019 5:40 7.9 100 - - - - 0.0 - - - - - -
10/10/2019 5:50 7.8 100 - - - - 0.0 - - - - - -
10/10/2019 6:00 7.8 100 - - - - 0.0 - - - - - -
10/10/2019 6:10 7.6 100 - - - - 0.0 - - - - - -
10/10/2019 6:20 7.9 100 - - - - 0.0 - - - - - -
10/10/2019 6:30 8.3 100 - - - - 0.0 - - - - - -
10/10/2019 6:40 8.6 100 - - - - 0.0 - - - - - -
10/10/2019 6:50 8.8 100 - - - - 0.0 - - - - - -
10/10/2019 7:00 9.1 100 - - - - 0.0 - - - - - -
10/10/2019 7:10 9.3 100 - - - - 0.0 - - - - - -
10/10/2019 7:20 9.5 100 - - - - 0.0 - - - - - -
10/10/2019 7:30 9.7 100 - - - - 0.0 - - - - - -
10/10/2019 7:40 10.0 100 - - - - 0.0 - - - - - -
10/10/2019 7:50 10.3 99 - - - - 0.0 - - - - - -
10/10/2019 8:00 10.7 99 - - - - 0.0 - - - - - -
10/10/2019 8:10 11.0 99 - - - - 0.0 - - - - - -
10/10/2019 8:20 11.4 99 - - - - 0.0 - - - - - -
10/10/2019 8:30 11.6 98 - - - - 0.0 - - - - - -
10/10/2019 8:40 12.0 97 - - - - 0.0 - - - - - -
10/10/2019 8:50 12.5 95 - - - - 0.0 - - - - - -
10/10/2019 9:00 12.9 91 - - - - 0.0 - - - - - -
10/10/2019 9:10 13.7 89 - - - - 0.0 - - - - - -
10/10/2019 9:20 14.6 86 - - - - 0.0 - - - - - -
10/10/2019 9:30 14.7 86 - - - - 0.0 - - - - - -
10/10/2019 9:40 14.8 86 - - - - 0.0 - - - - - -
10/10/2019 9:50 15.3 84 - - - - 0.0 - - - - - -
10/10/2019 10:00 16.1 80 - - - - 0.0 - - - - - -
10/10/2019 10:10 16.7 76 - - - - 0.0 - - - - - -
10/10/2019 10:20 17.5 73 - - - - 0.0 - - - - - -
10/10/2019 10:30 17.8 67 - - - - 0.0 - - - - - -
10/10/2019 10:40 18.0 64 - - - - 0.0 - - - - - -
10/10/2019 10:50 18.4 65 - - - - 0.0 - - - - - -
10/10/2019 11:00 18.4 65 - - - - 0.0 - - - - - -
10/10/2019 11:10 18.7 62 - - - - 0.0 - - - - - -
10/10/2019 11:20 18.9 60 - - - - 0.0 - - - - - -
10/10/2019 11:30 18.9 59 - - - - 0.0 - - - - - -
10/10/2019 11:40 19.2 60 - - - - 0.0 - - - - - -
10/10/2019 11:50 19.3 59 - - - - 0.0 - - - - - -
10/10/2019 12:00 19.4 58 - - - - 0.0 - - - - - -
10/10/2019 12:10 19.7 56 - - - - 0.0 - - - - - -
10/10/2019 12:20 19.8 56 - - - - 0.0 - - - - - -
10/10/2019 12:30 20.1 57 - - - - 0.0 - - - - - -
10/10/2019 12:40 20.4 55 - - - - 0.0 - - - - - -
10/10/2019 12:50 20.7 57 - - - - 0.0 - - - - - -
10/10/2019 13:00 20.5 57 - - - - 0.0 - - - - - -
10/10/2019 13:10 20.7 55 - - - - 0.0 - - - - - -
10/10/2019 13:20 20.7 56 - - - - 0.0 - - - - - -
10/10/2019 13:30 20.8 56 - - - - 0.0 - - - - - -
10/10/2019 13:40 20.9 56 - - - - 0.0 - - - - - -
10/10/2019 13:50 20.4 58 - - - - 0.0 - - - - - -
10/10/2019 14:00 21.3 55 - - - - 0.0 - - - - - -
10/10/2019 14:10 21.4 56 - - - - 0.0 - - - - - -
10/10/2019 14:20 21.5 56 - - - - 0.0 - - - - - -
10/10/2019 14:30 21.2 58 - - - - 0.0 - - - - - -
10/10/2019 14:40 20.8 60 - - - - 0.0 - - - - - -
10/10/2019 14:50 20.9 61 - - - - 0.0 - - - - - -
10/10/2019 15:00 20.7 62 - - - - 0.0 - - - - - -
10/10/2019 15:10 20.6 62 - - - - 0.0 - - - - - -
10/10/2019 15:20 20.4 64 - - - - 0.0 - - - - - -
10/10/2019 15:30 20.3 66 - - - - 0.0 - - - - - -
10/10/2019 15:40 20.1 66 - - - - 0.0 - - - - - -
10/10/2019 15:50 19.5 70 - - - - 0.0 - - - - - -
10/10/2019 16:00 18.1 76 - - - - 0.0 - - - - - -
10/10/2019 16:10 17.6 82 - - - - 0.0 - - - - - -
10/10/2019 16:20 16.9 85 - - - - 0.0 - - - - - -
10/10/2019 16:30 16.5 88 - - - - 0.0 - - - - - -
10/10/2019 16:40 16.1 90 - - - - 0.0 - - - - - -
10/10/2019 16:50 15.7 91 - - - - 0.0 - - - - - -
10/10/2019 17:00 15.4 93 - - - - 0.0 - - - - - -
10/10/2019 17:10 15.0 94 - - - - 0.0 - - - - - -
10/10/2019 17:20 14.6 94 - - - - 0.0 - - - - - -
10/10/2019 17:30 14.3 95 - - - - 0.0 - - - - - -
10/10/2019 17:40 14.0 95 - - - - 0.0 - - - - - -
10/10/2019 17:50 13.6 96 - - - - 0.0 - - - - - -
10/10/2019 18:00 13.4 96 - - - - 0.0 - - - - - -
10/10/2019 18:10 13.0 97 - - - - 0.0 - - - - - -
10/10/2019 18:20 12.7 97 - - - - 0.0 - - - - - -
10/10/2019 18:30 12.5 97 - - - - 0.0 - - - - - -
10/10/2019 18:40 12.3 97 - - - - 0.0 - - - - - -
10/10/2019 18:50 12.1 98 - - - - 0.0 - - - - - -
10/10/2019 19:00 11.9 98 - - - - 0.0 - - - - - -
10/10/2019 19:10 11.7 98 - - - - 0.0 - - - - - -
10/10/2019 19:20 11.6 98 - - - - 0.0 - - - - - -
10/10/2019 19:30 11.5 98 - - - - 0.0 - - - - - -
10/10/2019 19:40 11.2 98 - - - - 0.0 - - - - - -
10/10/2019 19:50 11.1 98 - - - - 0.0 - - - - - -
10/10/2019 20:00 10.9 98 - - - - 0.0 - - - - - -
10/10/2019 20:10 10.8 98 - - - - 0.0 - - - - - -
10/10/2019 20:20 10.7 99 - - - - 0.0 - - - - - -
10/10/2019 20:30 10.4 98 - - - - 0.0 - - - - - -
10/10/2019 20:40 10.3 99 - - - - 0.0 - - - - - -
10/10/2019 20:50 10.2 99 - - - - 0.0 - - - - - -
10/10/2019 21:00 10.2 99 - - - - 0.0 - - - - - -
10/10/2019 21:10 10.0 99 - - - - 0.0 - - - - - -
10/10/2019 21:20 10.0 99 - - - - 0.0 - - - - - -
10/10/2019 21:30 9.9 99 - - - - 0.0 - - - - - -
10/10/2019 21:40 9.9 99 - - - - 0.0 - - - - - -
10/10/2019 21:50 9.8 99 - - - - 0.0 - - - - - -
10/10/2019 22:00 9.6 99 - - - - 0.0 - - - - - -
10/10/2019 22:10 9.4 99 - - - - 0.0 - - - - - -
10/10/2019 22:20 9.3 99 - - - - 0.0 - - - - - -
10/10/2019 22:30 9.3 99 - - - - 0.0 - - - - - -
10/10/2019 22:40 9.2 99 - - - - 0.0 - - - - - -
10/10/2019 22:50 9.1 99 - - - - 0.0 - - - - - -
10/10/2019 23:00 9.1 99 - - - - 0.0 - - - - - -
10/10/2019 23:10 9.0 99 - - - - 0.0 - - - - - -
10/10/2019 23:20 8.9 99 - - - - 0.0 - - - - - -
10/10/2019 23:30 8.8 99 - - - - 0.0 - - - - - -
10/10/2019 23:40 8.9 99 - - - - 0.0 - - - - - -
10/10/2019 23:50 8.9 99 - - - - 0.0 - - - - - -
Anterior Página 1 de 1 Siguiente

NOTA: Tipo de datos según el color:
   - Valores diarios o 10 minutos correctos
   - Valores diarios calculados a partir de un número de datos 10 minutos menor que 144 y mayor que 120, o de un número de datos semihorarios menor que 48 y mayor que 40 (caso de las estaciones de Riegos de Navarra y del MARM)
   - Valores diez minutos estimados


Contacto        Enlaces        Aviso legal